Terminal Aerodrome Forecast
Issued by NWS

Home | Current Version | Previous Version | Text Only | Print | Product List | Glossary On
Versions: 1 2 3 4 5 6 7 8 9 10 11 12 13 14 15
000
FTUS45 KABQ 230700 AAA
TAFSAF
TAF AMD
KSAF 230728Z 2307/2406 15005KT P6SM VCFG SCT015 OVC025
      TEMPO 2308/2311 SCT025 OVC040
     FM231300 36005KT P6SM VCFG SCT015 OVC025
     FM231600 36010KT P6SM SCT025 SCT040
     FM232000 30010G20KT P6SM SCT050
     FM232300 33010KT P6SM FEW050=

USA.gov is the U.S. government's official web portal to all federal, state and local government web resources and services.